createdAt,value
2019-01-03T00:01:01.692Z,2.70
2019-01-03T00:03:44.817Z,2.47
2019-01-03T00:06:31.045Z,2.37
2019-01-03T00:09:02.137Z,2.90
2019-01-03T00:11:48.594Z,3.27
2019-01-03T00:14:19.740Z,2.20
2019-01-03T00:17:06.969Z,2.57
2019-01-03T00:19:40.570Z,2.90
2019-01-03T00:22:18.087Z,2.43
2019-01-03T00:25:01.209Z,2.40
2019-01-03T00:27:50.446Z,4.73
2019-01-03T00:30:37.895Z,3.37
2019-01-03T00:33:14.785Z,2.57
2019-01-03T00:35:55.049Z,2.20
2019-01-03T00:38:32.064Z,2.87
2019-01-03T00:41:06.028Z,3.20
2019-01-03T00:43:49.406Z,3.40
2019-01-03T00:46:29.389Z,3.70
2019-01-03T00:49:09.173Z,4.20
2019-01-03T00:51:49.291Z,2.93
2019-01-03T00:54:35.374Z,2.67
2019-01-03T00:57:06.442Z,2.97
2019-01-03T00:59:53.712Z,3.30
2019-01-03T01:02:24.803Z,3.87
2019-01-03T01:05:02.105Z,3.70
2019-01-03T01:07:49.586Z,2.27
2019-01-03T01:10:37.093Z,2.70
2019-01-03T01:13:08.234Z,3.27
2019-01-03T01:15:39.399Z,2.10
2019-01-03T01:18:22.804Z,2.90
2019-01-03T01:21:11.846Z,2.40
2019-01-03T01:23:46.224Z,2.40
2019-01-03T01:26:26.053Z,2.27
2019-01-03T01:29:13.618Z,2.20
2019-01-03T01:31:48.706Z,2.07
2019-01-03T01:34:25.738Z,1.90
2019-01-03T01:37:15.023Z,2.07
2019-01-03T01:39:54.920Z,1.70
2019-01-03T01:42:26.011Z,1.90
2019-01-03T01:45:15.298Z,2.00
2019-01-03T01:47:48.876Z,2.23
2019-01-03T01:50:19.971Z,1.90
2019-01-03T01:52:56.827Z,1.80
2019-01-03T01:55:39.940Z,2.17
2019-01-03T01:58:11.036Z,1.60
2019-01-03T02:01:00.731Z,1.77
2019-01-03T02:03:40.771Z,4.23
2019-01-03T02:06:27.036Z,2.63
2019-01-03T02:09:10.266Z,2.20
2019-01-03T02:11:53.529Z,1.77
2019-01-03T02:14:30.413Z,1.97
2019-01-03T02:17:13.540Z,2.30
2019-01-03T02:20:00.818Z,2.07
2019-01-03T02:22:41.105Z,2.20
2019-01-03T02:25:28.631Z,1.70
2019-01-03T02:28:16.081Z,1.70
2019-01-03T02:30:47.207Z,1.77
2019-01-03T02:33:24.080Z,2.60
2019-01-03T02:35:57.994Z,1.67
2019-01-03T02:38:29.097Z,2.17
2019-01-03T02:41:09.141Z,2.40
2019-01-03T02:43:40.237Z,2.30
2019-01-03T02:46:17.104Z,2.00
2019-01-03T02:49:16.620Z,1.83
2019-01-03T02:51:56.862Z,2.20
2019-01-03T02:54:28.017Z,1.80
2019-01-03T02:57:04.958Z,2.17
2019-01-03T02:59:45.040Z,2.63
2019-01-03T03:02:21.885Z,2.37
2019-01-03T03:04:58.992Z,2.20
2019-01-03T03:07:32.815Z,2.57
2019-01-03T03:10:12.989Z,2.80
2019-01-03T03:12:56.386Z,2.20
2019-01-03T03:15:36.818Z,2.50
2019-01-03T03:18:07.960Z,2.30
2019-01-03T03:20:55.049Z,2.47
2019-01-03T03:23:28.850Z,2.20
2019-01-03T03:26:08.740Z,2.50
2019-01-03T03:28:56.231Z,2.90
2019-01-03T03:31:45.649Z,2.03
2019-01-03T03:34:25.561Z,2.20
2019-01-03T03:37:11.559Z,2.07
2019-01-03T03:40:01.280Z,2.47
2019-01-03T03:42:32.552Z,2.57
2019-01-03T03:45:12.927Z,1.80
2019-01-03T03:47:59.173Z,2.43
2019-01-03T03:50:30.436Z,3.10
2019-01-03T03:53:01.534Z,1.60
2019-01-03T03:55:44.737Z,2.30
2019-01-03T03:58:32.323Z,1.83
2019-01-03T04:01:19.713Z,2.00
2019-01-03T04:03:51.035Z,2.23
2019-01-03T04:06:22.119Z,2.47
2019-01-03T04:08:56.034Z,2.80
2019-01-03T04:11:36.304Z,2.60
2019-01-03T04:14:16.426Z,2.17
2019-01-03T04:17:03.740Z,2.40
2019-01-03T04:19:51.021Z,3.00
2019-01-03T04:22:22.118Z,3.67
2019-01-03T04:24:58.921Z,2.87
2019-01-03T04:27:35.997Z,4.00
2019-01-03T04:30:23.823Z,2.30
2019-01-03T04:32:57.829Z,2.67
2019-01-03T04:35:31.908Z,2.43
2019-01-03T04:38:12.111Z,2.47
2019-01-03T04:40:43.239Z,3.30
2019-01-03T04:43:20.193Z,2.73
2019-01-03T04:45:54.042Z,2.93
2019-01-03T04:48:43.615Z,1.90
2019-01-03T04:51:29.704Z,2.80
2019-01-03T04:54:09.675Z,1.80
2019-01-03T04:56:59.187Z,4.13
2019-01-03T04:59:38.818Z,2.93
2019-01-03T05:02:12.522Z,2.40
2019-01-03T05:04:52.849Z,3.40
2019-01-03T05:07:36.313Z,2.33
2019-01-03T05:10:24.867Z,2.77
2019-01-03T05:13:07.549Z,2.20
2019-01-03T05:15:54.725Z,3.03
2019-01-03T05:18:42.386Z,2.30
2019-01-03T05:21:13.475Z,2.60
2019-01-03T05:23:44.570Z,2.30
2019-01-03T05:26:32.217Z,2.23
2019-01-03T05:29:09.133Z,2.90
2019-01-03T05:31:43.044Z,5.70
2019-01-03T05:34:29.185Z,1.90
2019-01-03T05:37:06.049Z,6.33
2019-01-03T05:39:39.571Z,3.23
2019-01-03T05:42:13.407Z,2.53
2019-01-03T05:44:47.027Z,2.63
2019-01-03T05:47:33.381Z,6.87
2019-01-03T05:50:10.370Z,2.53
2019-01-03T05:52:47.751Z,4.00
2019-01-03T05:55:30.990Z,6.90
2019-01-03T05:58:18.571Z,2.07
2019-01-03T06:00:49.665Z,2.27
2019-01-03T06:03:27.146Z,3.23
2019-01-03T06:06:13.616Z,3.80
2019-01-03T06:08:51.353Z,3.30
2019-01-03T06:11:38.870Z,4.63
2019-01-03T06:14:26.102Z,3.63
2019-01-03T06:17:13.620Z,3.93
2019-01-03T06:19:50.590Z,4.33
2019-01-03T06:22:21.679Z,3.00
2019-01-03T06:25:08.959Z,3.03
2019-01-03T06:27:56.592Z,4.00
2019-01-03T06:30:44.134Z,3.00
2019-01-03T06:33:27.251Z,3.67
2019-01-03T06:36:04.821Z,2.70
2019-01-03T06:38:38.944Z,3.60
2019-01-03T06:41:25.163Z,2.43
2019-01-03T06:44:08.346Z,2.97
2019-01-03T06:46:55.773Z,3.57
2019-01-03T06:49:29.806Z,4.67
2019-01-03T06:52:19.140Z,3.03
2019-01-03T06:54:58.996Z,2.60
2019-01-03T06:57:33.315Z,3.40
2019-01-03T07:00:13.343Z,2.57
2019-01-03T07:03:00.501Z,4.10
2019-01-03T07:05:49.682Z,3.50
2019-01-03T07:08:23.644Z,3.40
2019-01-03T07:10:54.734Z,3.20
2019-01-03T07:13:35.471Z,5.70
2019-01-03T07:16:21.646Z,3.27
2019-01-03T07:19:08.864Z,3.97
2019-01-03T07:21:40.132Z,5.40
2019-01-03T07:24:14.187Z,3.97
2019-01-03T07:26:51.023Z,2.90
2019-01-03T07:29:38.618Z,3.90
2019-01-03T07:32:15.888Z,3.57
2019-01-03T07:34:50.045Z,4.07
2019-01-03T07:37:36.115Z,2.90
2019-01-03T07:40:09.256Z,2.60
2019-01-03T07:42:43.171Z,3.80
2019-01-03T07:45:30.968Z,4.33
2019-01-03T07:48:02.057Z,3.77
2019-01-03T07:50:49.099Z,4.33
2019-01-03T07:53:36.237Z,4.97
2019-01-03T07:56:16.311Z,4.73
2019-01-03T08:01:29.960Z,3.50
2019-01-03T08:04:09.946Z,4.47
2019-01-03T08:06:41.093Z,5.80
2019-01-03T08:09:12.255Z,5.17
2019-01-03T08:11:58.195Z,6.30
2019-01-03T08:14:38.234Z,5.30
2019-01-03T08:17:12.048Z,6.70
2019-01-03T08:19:43.141Z,8.37
2019-01-03T08:22:14.229Z,6.40
2019-01-03T08:24:51.097Z,5.20
2019-01-03T08:27:38.279Z,5.30
2019-01-03T08:30:10.553Z,4.43
2019-01-03T08:32:58.101Z,4.97
2019-01-03T08:35:34.912Z,5.33
2019-01-03T08:38:08.946Z,7.20
2019-01-03T08:40:46.073Z,5.93
2019-01-03T08:43:33.555Z,4.27
2019-01-03T08:46:13.605Z,5.10
2019-01-03T08:48:50.785Z,4.73
2019-01-03T08:51:39.981Z,4.13
2019-01-03T08:54:22.853Z,3.30
2019-01-03T08:57:03.003Z,4.00
2019-01-03T08:59:36.842Z,3.50
2019-01-03T09:02:24.321Z,5.57
2019-01-03T09:05:01.459Z,4.13
2019-01-03T09:07:49.140Z,4.10
2019-01-03T09:10:29.327Z,3.33
2019-01-03T09:13:16.429Z,5.70
2019-01-03T09:15:47.549Z,4.30
2019-01-03T09:18:33.927Z,5.77
2019-01-03T09:21:19.994Z,4.27
2019-01-03T09:23:57.038Z,5.30
2019-01-03T09:26:28.164Z,4.40
2019-01-03T09:28:59.292Z,4.47
2019-01-03T09:31:42.586Z,3.63
2019-01-03T09:34:16.633Z,4.67
2019-01-03T09:36:47.725Z,4.30
2019-01-03T09:39:18.891Z,3.63
2019-01-03T09:42:06.385Z,5.13
2019-01-03T09:44:43.276Z,4.07
2019-01-03T09:47:12.785Z,3.27
2019-01-03T09:49:42.334Z,4.97
2019-01-03T09:52:11.836Z,6.83
2019-01-03T09:54:41.288Z,5.17
2019-01-03T09:57:10.761Z,4.73
2019-01-03T09:59:40.261Z,6.30
2019-01-03T10:02:09.756Z,7.10
2019-01-03T10:04:39.218Z,6.20
2019-01-03T10:07:08.729Z,7.07
2019-01-03T10:09:38.185Z,4.60
2019-01-03T10:12:07.635Z,4.97
2019-01-03T10:14:37.125Z,3.50
2019-01-03T10:17:06.575Z,4.17
2019-01-03T10:19:36.044Z,7.83
2019-01-03T10:22:05.535Z,6.63
2019-01-03T10:24:35.013Z,6.47
2019-01-03T10:27:04.508Z,6.10
2019-01-03T10:29:34.013Z,6.57
2019-01-03T10:32:03.464Z,5.67
2019-01-03T10:34:32.912Z,6.97
2019-01-03T10:37:02.424Z,8.77
2019-01-03T10:39:31.873Z,5.60
2019-01-03T10:42:01.328Z,9.17
2019-01-03T10:44:30.834Z,6.43
2019-01-03T10:47:00.288Z,3.97
2019-01-03T10:49:29.752Z,6.47
2019-01-03T10:51:59.316Z,7.80
2019-01-03T10:54:28.775Z,7.53
2019-01-03T10:56:58.225Z,7.53
2019-01-03T10:59:27.670Z,9.77
2019-01-03T11:01:58.696Z,5.97
2019-01-03T11:04:28.194Z,7.43
2019-01-03T11:06:58.306Z,6.43
2019-01-03T11:09:27.758Z,3.93
2019-01-03T11:11:57.237Z,5.80
2019-01-03T11:14:26.685Z,6.10
2019-01-03T11:16:56.173Z,5.70
2019-01-03T11:19:25.625Z,6.93
2019-01-03T11:21:55.209Z,3.90
2019-01-03T11:24:24.644Z,5.30
2019-01-03T11:26:54.118Z,3.47
2019-01-03T11:29:23.581Z,4.10
2019-01-03T11:31:53.071Z,5.00
2019-01-03T11:34:22.562Z,3.97
2019-01-03T11:36:52.046Z,4.77
2019-01-03T11:39:21.505Z,4.17
2019-01-03T11:41:50.946Z,5.40
2019-01-03T11:44:20.437Z,5.07
2019-01-03T11:46:49.881Z,3.70
2019-01-03T11:49:19.383Z,3.40
2019-01-03T11:51:48.814Z,4.53
2019-01-03T11:54:18.247Z,2.70
2019-01-03T11:56:47.733Z,4.73
2019-01-03T11:59:17.191Z,4.83
2019-01-03T12:01:46.650Z,3.10
2019-01-03T12:04:16.113Z,4.93
2019-01-03T12:06:45.600Z,4.13
2019-01-03T12:09:15.052Z,6.27
2019-01-03T12:11:44.572Z,5.97
2019-01-03T12:14:14.028Z,4.60
2019-01-03T12:16:43.477Z,4.07
2019-01-03T12:19:12.956Z,3.33
2019-01-03T12:21:42.409Z,4.93
2019-01-03T12:24:11.880Z,5.50
2019-01-03T12:26:41.377Z,3.60
2019-01-03T12:29:10.859Z,4.10
2019-01-03T12:31:40.312Z,4.87
2019-01-03T12:34:09.792Z,5.20
2019-01-03T12:36:39.252Z,8.90
2019-01-03T12:39:08.771Z,4.47
2019-01-03T12:41:38.219Z,5.50
2019-01-03T12:44:07.657Z,3.77
2019-01-03T12:46:37.116Z,5.13
2019-01-03T12:49:06.585Z,3.90
2019-01-03T12:51:36.075Z,4.30
2019-01-03T12:54:05.525Z,3.63
2019-01-03T12:56:35.013Z,4.73
2019-01-03T12:59:04.535Z,4.20
2019-01-03T13:01:34.019Z,3.23
2019-01-03T13:04:03.507Z,4.17
2019-01-03T13:06:32.982Z,4.40
2019-01-03T13:09:02.431Z,3.40
2019-01-03T13:11:31.928Z,4.70
2019-01-03T13:14:01.381Z,4.10
2019-01-03T13:16:30.836Z,3.20
2019-01-03T13:19:00.328Z,4.77
2019-01-03T13:21:29.779Z,3.23
2019-01-03T13:23:59.312Z,3.73
2019-01-03T13:26:28.815Z,5.00
2019-01-03T13:28:58.253Z,3.90
2019-01-03T13:31:27.728Z,3.70
2019-01-03T13:33:57.181Z,4.40
2019-01-03T13:36:26.645Z,4.53
2019-01-03T13:38:56.143Z,4.57
2019-01-03T13:41:25.636Z,4.37
2019-01-03T13:43:55.097Z,4.67
2019-01-03T13:46:24.557Z,4.67
2019-01-03T13:48:54.073Z,5.37
2019-01-03T13:51:23.582Z,5.00
2019-01-03T13:53:53.038Z,4.80
2019-01-03T13:56:22.530Z,5.20
2019-01-03T13:58:52.030Z,5.67
2019-01-03T14:01:21.489Z,5.70
2019-01-03T14:03:50.942Z,4.53
2019-01-03T14:06:20.427Z,5.77
2019-01-03T14:08:49.873Z,5.50
2019-01-03T14:11:19.374Z,6.53
2019-01-03T14:13:48.839Z,12.50
2019-01-03T14:16:18.381Z,9.23
2019-01-03T14:18:47.901Z,8.47
2019-01-03T14:21:17.386Z,21.30
2019-01-03T14:23:46.831Z,9.63
2019-01-03T14:26:16.314Z,11.70
2019-01-03T14:28:45.775Z,6.50
2019-01-03T14:31:15.268Z,6.20
2019-01-03T14:33:44.763Z,26.57
2019-01-03T14:36:14.244Z,39.90
2019-01-03T14:38:43.705Z,36.67
2019-01-03T14:41:13.206Z,20.63
2019-01-03T14:43:42.662Z,9.53
2019-01-03T14:46:12.146Z,6.23
2019-01-03T14:48:41.627Z,7.67
2019-01-03T14:51:11.101Z,8.00
2019-01-03T14:53:40.560Z,12.67
2019-01-03T14:56:10.914Z,8.87
2019-01-03T14:58:40.385Z,11.40
2019-01-03T15:01:09.867Z,7.90
2019-01-03T15:03:39.331Z,7.47
2019-01-03T15:06:08.850Z,5.17
2019-01-03T15:08:38.304Z,5.80
2019-01-03T15:11:07.764Z,9.90
2019-01-03T15:13:37.236Z,7.40
2019-01-03T15:16:06.748Z,6.00
2019-01-03T15:18:36.247Z,9.23
2019-01-03T15:21:05.715Z,5.83
2019-01-03T15:23:35.164Z,4.53
2019-01-03T15:26:04.670Z,4.63
2019-01-03T15:28:34.122Z,5.53
2019-01-03T15:31:03.571Z,6.63
2019-01-03T15:33:33.120Z,8.00
2019-01-03T15:36:02.592Z,8.40
2019-01-03T15:38:32.113Z,13.20
2019-01-03T15:41:01.575Z,8.80
2019-01-03T15:43:31.035Z,10.40
2019-01-03T15:46:00.558Z,7.03
2019-01-03T15:48:30.006Z,6.60
2019-01-03T15:50:59.456Z,7.83
2019-01-03T15:53:28.949Z,11.70
2019-01-03T15:55:58.414Z,5.30
2019-01-03T15:58:27.914Z,5.77
2019-01-03T16:00:57.370Z,5.30
2019-01-03T16:03:26.844Z,5.20
2019-01-03T16:05:56.346Z,10.83
2019-01-03T16:08:25.811Z,6.13
2019-01-03T16:10:55.253Z,7.93
2019-01-03T16:13:24.757Z,8.63
2019-01-03T16:15:54.215Z,6.80
2019-01-03T16:18:23.669Z,5.80
2019-01-03T16:20:53.158Z,6.00
2019-01-03T16:23:22.687Z,5.20
2019-01-03T16:25:52.148Z,5.97
2019-01-03T16:28:21.593Z,5.90
2019-01-03T16:30:51.086Z,7.70
2019-01-03T16:33:20.549Z,4.03
2019-01-03T16:35:49.805Z,4.57
2019-01-03T16:38:19.251Z,3.90
2019-01-03T16:40:48.745Z,4.20
2019-01-03T16:43:18.194Z,4.73
2019-01-03T16:45:47.650Z,5.13
2019-01-03T16:48:17.264Z,5.73
2019-01-03T16:50:46.475Z,4.67
2019-01-03T16:53:17.033Z,3.43
2019-01-03T16:55:46.678Z,4.57
2019-01-03T16:58:16.145Z,4.23
2019-01-03T17:00:45.626Z,4.30
2019-01-03T17:03:15.128Z,4.87
2019-01-03T17:05:44.588Z,18.90
2019-01-03T17:08:14.033Z,4.13
2019-01-03T17:10:44.847Z,4.70
2019-01-03T17:13:14.302Z,4.83
2019-01-03T17:15:43.511Z,5.60
2019-01-03T17:18:13.009Z,20.90
2019-01-03T17:20:42.480Z,5.10
2019-01-03T17:23:11.943Z,4.33
2019-01-03T17:25:41.416Z,4.10
2019-01-03T17:28:10.950Z,4.23
2019-01-03T17:30:40.461Z,6.67
2019-01-03T17:33:09.958Z,6.60
2019-01-03T17:35:39.418Z,4.63
2019-01-03T17:38:08.885Z,4.57
2019-01-03T17:40:38.589Z,4.40
2019-01-03T17:43:08.083Z,4.07
2019-01-03T17:45:37.555Z,4.40
2019-01-03T17:48:07.094Z,5.63
2019-01-03T17:50:36.550Z,3.30
2019-01-03T17:53:05.997Z,4.60
2019-01-03T17:55:35.511Z,4.40
2019-01-03T17:58:04.960Z,4.23
2019-01-03T18:00:35.365Z,3.70
2019-01-03T18:03:05.191Z,4.53
2019-01-03T18:05:34.655Z,6.17
2019-01-03T18:08:04.129Z,4.57
2019-01-03T18:10:35.294Z,6.97
2019-01-03T18:13:04.763Z,4.23
2019-01-03T18:15:34.231Z,4.87
2019-01-03T18:18:04.386Z,6.47
2019-01-03T18:20:33.845Z,5.30
2019-01-03T18:23:03.306Z,6.20
2019-01-03T18:25:32.813Z,6.07
2019-01-03T18:28:02.290Z,5.83
2019-01-03T18:30:31.736Z,3.97
2019-01-03T18:33:01.225Z,6.50
2019-01-03T18:35:30.681Z,8.23
2019-01-03T18:38:00.144Z,5.30
2019-01-03T18:40:29.666Z,5.00
2019-01-03T18:42:59.123Z,5.77
2019-01-03T18:45:28.652Z,7.30
2019-01-03T18:47:58.161Z,6.07
2019-01-03T18:50:27.615Z,4.40
2019-01-03T18:52:57.075Z,5.07
2019-01-03T18:55:26.570Z,4.80
2019-01-03T18:57:56.023Z,4.90
2019-01-03T19:00:25.484Z,4.73
2019-01-03T19:02:55.021Z,4.80
2019-01-03T19:05:24.460Z,5.20
2019-01-03T19:07:53.924Z,5.87
2019-01-03T19:10:28.272Z,5.03
2019-01-03T19:12:55.221Z,4.43
2019-01-03T19:15:24.667Z,4.90
2019-01-03T19:17:54.735Z,5.20
2019-01-03T19:20:24.272Z,5.20
2019-01-03T19:22:53.732Z,6.60
2019-01-03T19:25:23.348Z,8.00
2019-01-03T19:27:52.805Z,6.63
2019-01-03T19:30:22.283Z,6.87
2019-01-03T19:32:51.752Z,6.17
2019-01-03T19:37:57.364Z,6.13
2019-01-03T19:40:26.819Z,7.40
2019-01-03T19:42:56.293Z,7.87
2019-01-03T19:45:26.461Z,6.87
2019-01-03T19:47:55.914Z,6.23
2019-01-03T19:50:26.557Z,8.17
2019-01-03T19:52:56.059Z,7.13
2019-01-03T19:55:25.520Z,10.17
2019-01-03T19:57:54.990Z,7.40
2019-01-03T20:00:24.576Z,9.27
2019-01-03T20:02:54.043Z,6.43
2019-01-03T20:05:23.498Z,6.73
2019-01-03T20:07:53.001Z,7.13
2019-01-03T20:10:22.457Z,7.30
2019-01-03T20:12:53.462Z,7.70
2019-01-03T20:15:22.960Z,6.07
2019-01-03T20:17:52.491Z,6.37
2019-01-03T20:20:22.021Z,7.40
2019-01-03T20:22:51.533Z,7.23
2019-01-03T20:25:21.115Z,7.60
2019-01-03T20:27:50.738Z,6.30
2019-01-03T20:30:20.250Z,8.10
2019-01-03T20:32:49.717Z,7.20
2019-01-03T20:35:19.250Z,7.53
2019-01-03T20:37:50.456Z,7.70
2019-01-03T20:40:19.985Z,7.53
2019-01-03T20:42:49.477Z,7.70
2019-01-03T20:45:18.940Z,8.60
2019-01-03T20:47:48.419Z,7.90
2019-01-03T20:50:17.943Z,7.37
2019-01-03T20:52:47.392Z,14.63
2019-01-03T20:55:16.852Z,6.93
2019-01-03T20:57:46.354Z,6.80
2019-01-03T21:00:17.056Z,7.13
2019-01-03T21:02:46.516Z,6.43
2019-01-03T21:05:18.038Z,6.97
2019-01-03T21:07:47.505Z,8.90
2019-01-03T21:10:16.964Z,7.30
2019-01-03T21:12:46.498Z,7.87
2019-01-03T21:15:17.566Z,7.80
2019-01-03T21:17:47.175Z,7.17
2019-01-03T21:20:17.427Z,7.33
2019-01-03T21:22:46.906Z,7.40
2019-01-03T21:25:16.451Z,7.77
2019-01-03T21:27:45.964Z,9.60
2019-01-03T21:30:18.235Z,6.97
2019-01-03T21:32:47.788Z,7.20
2019-01-03T21:35:19.403Z,7.87
2019-01-03T21:37:48.863Z,8.37
2019-01-03T21:40:18.385Z,8.53
2019-01-03T21:42:47.956Z,7.03
2019-01-03T21:45:17.455Z,7.00
2019-01-03T21:47:46.911Z,6.80
2019-01-03T21:50:16.357Z,7.87
2019-01-03T21:52:45.878Z,9.40
2019-01-03T21:55:15.343Z,8.77
2019-01-03T21:57:44.797Z,9.93
2019-01-03T22:00:14.359Z,8.10
2019-01-03T22:02:43.815Z,9.60
2019-01-03T22:05:13.325Z,10.13
2019-01-03T22:07:42.787Z,10.70
2019-01-03T22:10:12.324Z,7.90
2019-01-03T22:12:41.814Z,8.53
2019-01-03T22:15:15.831Z,8.37
2019-01-03T22:17:42.624Z,9.40
2019-01-03T22:20:12.257Z,10.10
2019-01-03T22:22:41.864Z,10.57
2019-01-03T22:25:11.340Z,10.40
2019-01-03T22:27:40.890Z,8.73
2019-01-03T22:30:11.462Z,9.70
2019-01-03T22:32:40.919Z,8.40
2019-01-03T22:35:10.392Z,8.50
2019-01-03T22:37:39.853Z,9.27
2019-01-03T22:40:09.642Z,8.87
2019-01-03T22:42:39.131Z,12.50
2019-01-03T22:45:09.604Z,8.70
2019-01-03T22:47:39.078Z,9.10
2019-01-03T22:50:10.971Z,10.00
2019-01-03T22:52:40.410Z,10.90
2019-01-03T22:55:09.873Z,9.53
2019-01-03T22:57:39.367Z,10.90
2019-01-03T23:00:23.565Z,9.80
2019-01-03T23:02:53.078Z,8.17
2019-01-03T23:05:22.618Z,12.53
2019-01-03T23:07:52.059Z,10.00
2019-01-03T23:10:21.560Z,10.47
2019-01-03T23:12:51.025Z,11.03
2019-01-03T23:15:20.491Z,10.20
2019-01-03T23:17:49.990Z,10.90
2019-01-03T23:20:19.469Z,10.37
2019-01-03T23:22:49.050Z,10.53
2019-01-03T23:25:18.568Z,10.60
2019-01-03T23:27:48.009Z,12.47
2019-01-03T23:30:17.563Z,13.23
2019-01-03T23:32:47.078Z,11.70
2019-01-03T23:35:16.528Z,13.27
2019-01-03T23:37:46.005Z,10.80
2019-01-03T23:40:15.577Z,11.27
2019-01-03T23:42:45.218Z,11.00
2019-01-03T23:45:20.796Z,10.30
2019-01-03T23:47:52.265Z,10.93
2019-01-03T23:50:28.487Z,9.50
2019-01-03T23:52:58.201Z,10.70
2019-01-03T23:55:28.898Z,9.17
2019-01-03T23:57:58.535Z,10.83
